sensor_id;sensor_type;location;lat;lon;timestamp;P1;durP1;ratioP1;P2;durP2;ratioP2
10586;SDS011;5341;47.606;7.576;2023-05-13T00:00:01;5.30;;;4.80;;
10586;SDS011;5341;47.606;7.576;2023-05-13T00:02:30;4.88;;;4.45;;
10586;SDS011;5341;47.606;7.576;2023-05-13T00:04:57;7.30;;;5.18;;
10586;SDS011;5341;47.606;7.576;2023-05-13T00:07:26;5.25;;;4.75;;
10586;SDS011;5341;47.606;7.576;2023-05-13T00:09:54;6.05;;;5.13;;
10586;SDS011;5341;47.606;7.576;2023-05-13T00:12:21;5.47;;;4.80;;
10586;SDS011;5341;47.606;7.576;2023-05-13T00:14:49;5.38;;;4.88;;
10586;SDS011;5341;47.606;7.576;2023-05-13T00:17:16;5.05;;;4.53;;
10586;SDS011;5341;47.606;7.576;2023-05-13T00:19:43;5.50;;;5.00;;
10586;SDS011;5341;47.606;7.576;2023-05-13T00:22:11;5.32;;;4.82;;
10586;SDS011;5341;47.606;7.576;2023-05-13T00:24:39;4.93;;;4.47;;
10586;SDS011;5341;47.606;7.576;2023-05-13T00:27:07;5.45;;;4.72;;
10586;SDS011;5341;47.606;7.576;2023-05-13T00:29:34;5.32;;;4.82;;
10586;SDS011;5341;47.606;7.576;2023-05-13T00:32:01;8.00;;;5.20;;
10586;SDS011;5341;47.606;7.576;2023-05-13T00:34:29;7.30;;;4.90;;
10586;SDS011;5341;47.606;7.576;2023-05-13T00:36:56;5.30;;;4.78;;
10586;SDS011;5341;47.606;7.576;2023-05-13T00:39:28;5.43;;;4.93;;
10586;SDS011;5341;47.606;7.576;2023-05-13T00:41:57;7.50;;;5.15;;
10586;SDS011;5341;47.606;7.576;2023-05-13T00:44:25;6.18;;;5.13;;
10586;SDS011;5341;47.606;7.576;2023-05-13T00:46:53;5.47;;;4.80;;
10586;SDS011;5341;47.606;7.576;2023-05-13T00:49:21;5.90;;;5.30;;
10586;SDS011;5341;47.606;7.576;2023-05-13T00:51:48;6.55;;;5.22;;
10586;SDS011;5341;47.606;7.576;2023-05-13T00:54:20;7.68;;;5.35;;
10586;SDS011;5341;47.606;7.576;2023-05-13T00:56:47;6.65;;;5.57;;
10586;SDS011;5341;47.606;7.576;2023-05-13T00:59:20;6.50;;;5.90;;
10586;SDS011;5341;47.606;7.576;2023-05-13T01:01:51;8.00;;;6.10;;
10586;SDS011;5341;47.606;7.576;2023-05-13T01:04:28;6.78;;;5.97;;
10586;SDS011;5341;47.606;7.576;2023-05-13T01:07:05;5.70;;;5.20;;
10586;SDS011;5341;47.606;7.576;2023-05-13T01:09:39;6.68;;;5.80;;
10586;SDS011;5341;47.606;7.576;2023-05-13T01:12:20;5.88;;;5.38;;
10586;SDS011;5341;47.606;7.576;2023-05-13T01:14:58;8.25;;;5.72;;
10586;SDS011;5341;47.606;7.576;2023-05-13T01:17:32;7.32;;;5.88;;
10586;SDS011;5341;47.606;7.576;2023-05-13T01:20:04;6.50;;;5.85;;
10586;SDS011;5341;47.606;7.576;2023-05-13T01:22:34;7.10;;;5.70;;
10586;SDS011;5341;47.606;7.576;2023-05-13T01:25:02;6.43;;;5.50;;
10586;SDS011;5341;47.606;7.576;2023-05-13T01:27:30;5.88;;;5.13;;
10586;SDS011;5341;47.606;7.576;2023-05-13T01:30:00;7.90;;;5.47;;
10586;SDS011;5341;47.606;7.576;2023-05-13T01:32:31;6.80;;;6.18;;
10586;SDS011;5341;47.606;7.576;2023-05-13T01:34:58;7.22;;;5.18;;
10586;SDS011;5341;47.606;7.576;2023-05-13T01:37:28;7.50;;;5.28;;
10586;SDS011;5341;47.606;7.576;2023-05-13T01:39:58;5.85;;;5.22;;
10586;SDS011;5341;47.606;7.576;2023-05-13T01:42:26;6.05;;;5.43;;
10586;SDS011;5341;47.606;7.576;2023-05-13T01:44:55;7.82;;;5.28;;
10586;SDS011;5341;47.606;7.576;2023-05-13T01:47:23;6.70;;;5.45;;
10586;SDS011;5341;47.606;7.576;2023-05-13T01:49:51;5.28;;;4.75;;
10586;SDS011;5341;47.606;7.576;2023-05-13T01:52:18;9.93;;;5.00;;
10586;SDS011;5341;47.606;7.576;2023-05-13T01:54:46;5.25;;;4.75;;
10586;SDS011;5341;47.606;7.576;2023-05-13T01:57:15;5.57;;;5.00;;
10586;SDS011;5341;47.606;7.576;2023-05-13T01:59:42;5.47;;;4.97;;
10586;SDS011;5341;47.606;7.576;2023-05-13T02:02:10;5.40;;;4.82;;
10586;SDS011;5341;47.606;7.576;2023-05-13T02:04:38;5.75;;;4.75;;
10586;SDS011;5341;47.606;7.576;2023-05-13T02:07:05;6.35;;;4.72;;
10586;SDS011;5341;47.606;7.576;2023-05-13T02:09:33;9.15;;;5.18;;
10586;SDS011;5341;47.606;7.576;2023-05-13T02:12:00;5.32;;;4.82;;
10586;SDS011;5341;47.606;7.576;2023-05-13T02:14:29;10.50;;;5.15;;
10586;SDS011;5341;47.606;7.576;2023-05-13T02:16:56;8.63;;;4.68;;
10586;SDS011;5341;47.606;7.576;2023-05-13T02:19:24;5.95;;;4.85;;
10586;SDS011;5341;47.606;7.576;2023-05-13T02:21:51;5.47;;;4.72;;
10586;SDS011;5341;47.606;7.576;2023-05-13T02:24:18;6.85;;;4.88;;
10586;SDS011;5341;47.606;7.576;2023-05-13T02:26:45;5.45;;;4.90;;
10586;SDS011;5341;47.606;7.576;2023-05-13T02:29:13;5.28;;;4.78;;
10586;SDS011;5341;47.606;7.576;2023-05-13T02:31:42;5.50;;;4.95;;
10586;SDS011;5341;47.606;7.576;2023-05-13T02:34:09;5.22;;;4.72;;
10586;SDS011;5341;47.606;7.576;2023-05-13T02:36:36;5.85;;;5.00;;
10586;SDS011;5341;47.606;7.576;2023-05-13T02:39:04;7.97;;;5.15;;
10586;SDS011;5341;47.606;7.576;2023-05-13T02:41:33;6.43;;;5.10;;
10586;SDS011;5341;47.606;7.576;2023-05-13T02:44:01;5.45;;;4.93;;
10586;SDS011;5341;47.606;7.576;2023-05-13T02:46:28;7.15;;;4.97;;
10586;SDS011;5341;47.606;7.576;2023-05-13T02:48:57;5.40;;;4.93;;
10586;SDS011;5341;47.606;7.576;2023-05-13T02:51:27;4.82;;;4.40;;
10586;SDS011;5341;47.606;7.576;2023-05-13T02:53:55;5.45;;;4.95;;
10586;SDS011;5341;47.606;7.576;2023-05-13T02:56:24;8.60;;;4.75;;
10586;SDS011;5341;47.606;7.576;2023-05-13T02:58:51;9.73;;;4.85;;
10586;SDS011;5341;47.606;7.576;2023-05-13T03:01:19;8.23;;;4.50;;
10586;SDS011;5341;47.606;7.576;2023-05-13T03:03:46;4.65;;;4.25;;
10586;SDS011;5341;47.606;7.576;2023-05-13T03:06:15;4.82;;;4.43;;
10586;SDS011;5341;47.606;7.576;2023-05-13T03:08:42;5.00;;;4.18;;
10586;SDS011;5341;47.606;7.576;2023-05-13T03:11:10;4.22;;;3.67;;
10586;SDS011;5341;47.606;7.576;2023-05-13T03:13:38;5.72;;;4.00;;
10586;SDS011;5341;47.606;7.576;2023-05-13T03:16:05;4.20;;;3.78;;
10586;SDS011;5341;47.606;7.576;2023-05-13T03:18:36;5.82;;;3.60;;
10586;SDS011;5341;47.606;7.576;2023-05-13T03:21:03;4.72;;;3.70;;
10586;SDS011;5341;47.606;7.576;2023-05-13T03:23:32;6.45;;;3.85;;
10586;SDS011;5341;47.606;7.576;2023-05-13T03:26:00;5.28;;;3.60;;
10586;SDS011;5341;47.606;7.576;2023-05-13T03:28:29;4.40;;;4.00;;
10586;SDS011;5341;47.606;7.576;2023-05-13T03:30:57;5.85;;;3.92;;
10586;SDS011;5341;47.606;7.576;2023-05-13T03:33:24;4.25;;;3.63;;
10586;SDS011;5341;47.606;7.576;2023-05-13T03:35:54;5.97;;;4.38;;
10586;SDS011;5341;47.606;7.576;2023-05-13T03:38:26;4.65;;;3.80;;
10586;SDS011;5341;47.606;7.576;2023-05-13T03:40:55;4.97;;;4.20;;
10586;SDS011;5341;47.606;7.576;2023-05-13T03:43:22;5.28;;;4.18;;
10586;SDS011;5341;47.606;7.576;2023-05-13T03:45:55;6.53;;;4.40;;
10586;SDS011;5341;47.606;7.576;2023-05-13T03:48:22;4.75;;;4.35;;
10586;SDS011;5341;47.606;7.576;2023-05-13T03:50:49;4.82;;;4.10;;
10586;SDS011;5341;47.606;7.576;2023-05-13T03:53:18;4.57;;;4.15;;
10586;SDS011;5341;47.606;7.576;2023-05-13T03:55:46;4.93;;;3.78;;
10586;SDS011;5341;47.606;7.576;2023-05-13T03:58:15;4.65;;;4.20;;
10586;SDS011;5341;47.606;7.576;2023-05-13T04:00:43;4.30;;;3.90;;
10586;SDS011;5341;47.606;7.576;2023-05-13T04:03:12;4.95;;;4.53;;
10586;SDS011;5341;47.606;7.576;2023-05-13T04:05:40;9.35;;;4.20;;
10586;SDS011;5341;47.606;7.576;2023-05-13T04:08:07;5.10;;;3.95;;
10586;SDS011;5341;47.606;7.576;2023-05-13T04:10:35;4.45;;;4.05;;
10586;SDS011;5341;47.606;7.576;2023-05-13T04:13:03;4.45;;;4.05;;
10586;SDS011;5341;47.606;7.576;2023-05-13T04:15:32;5.65;;;4.20;;
10586;SDS011;5341;47.606;7.576;2023-05-13T04:17:59;5.13;;;4.50;;
10586;SDS011;5341;47.606;7.576;2023-05-13T04:20:26;4.95;;;4.45;;
10586;SDS011;5341;47.606;7.576;2023-05-13T04:22:54;4.95;;;4.55;;
10586;SDS011;5341;47.606;7.576;2023-05-13T04:25:21;6.25;;;4.90;;
10586;SDS011;5341;47.606;7.576;2023-05-13T04:27:48;5.47;;;4.95;;
10586;SDS011;5341;47.606;7.576;2023-05-13T04:30:23;4.90;;;4.35;;
10586;SDS011;5341;47.606;7.576;2023-05-13T04:32:52;5.07;;;4.50;;
10586;SDS011;5341;47.606;7.576;2023-05-13T04:35:20;4.93;;;4.43;;
10586;SDS011;5341;47.606;7.576;2023-05-13T04:37:51;5.68;;;5.15;;
10586;SDS011;5341;47.606;7.576;2023-05-13T04:40:20;5.20;;;4.50;;
10586;SDS011;5341;47.606;7.576;2023-05-13T04:42:48;6.57;;;4.97;;
10586;SDS011;5341;47.606;7.576;2023-05-13T04:45:22;4.60;;;4.20;;
10586;SDS011;5341;47.606;7.576;2023-05-13T04:47:49;5.43;;;4.10;;
10586;SDS011;5341;47.606;7.576;2023-05-13T04:50:18;5.00;;;4.50;;
10586;SDS011;5341;47.606;7.576;2023-05-13T04:52:46;6.68;;;4.50;;
10586;SDS011;5341;47.606;7.576;2023-05-13T04:55:16;7.15;;;4.15;;
10586;SDS011;5341;47.606;7.576;2023-05-13T04:57:45;5.13;;;4.63;;
10586;SDS011;5341;47.606;7.576;2023-05-13T05:00:12;7.10;;;4.75;;
10586;SDS011;5341;47.606;7.576;2023-05-13T05:02:42;7.57;;;4.60;;
10586;SDS011;5341;47.606;7.576;2023-05-13T05:05:10;4.75;;;4.18;;
10586;SDS011;5341;47.606;7.576;2023-05-13T05:07:41;4.40;;;4.00;;
10586;SDS011;5341;47.606;7.576;2023-05-13T05:10:09;5.40;;;4.00;;
10586;SDS011;5341;47.606;7.576;2023-05-13T05:12:41;5.40;;;4.20;;
10586;SDS011;5341;47.606;7.576;2023-05-13T05:15:10;4.88;;;4.38;;
10586;SDS011;5341;47.606;7.576;2023-05-13T05:17:41;6.43;;;4.72;;
10586;SDS011;5341;47.606;7.576;2023-05-13T05:20:10;4.53;;;4.13;;
10586;SDS011;5341;47.606;7.576;2023-05-13T05:22:40;6.18;;;4.40;;
10586;SDS011;5341;47.606;7.576;2023-05-13T05:25:09;4.38;;;3.97;;
10586;SDS011;5341;47.606;7.576;2023-05-13T05:27:37;4.53;;;4.10;;
10586;SDS011;5341;47.606;7.576;2023-05-13T05:30:06;5.20;;;4.22;;
10586;SDS011;5341;47.606;7.576;2023-05-13T05:32:35;5.70;;;4.18;;
10586;SDS011;5341;47.606;7.576;2023-05-13T05:35:04;4.25;;;3.95;;
10586;SDS011;5341;47.606;7.576;2023-05-13T05:37:32;4.32;;;3.90;;
10586;SDS011;5341;47.606;7.576;2023-05-13T05:40:03;6.28;;;4.18;;
10586;SDS011;5341;47.606;7.576;2023-05-13T05:42:33;5.25;;;4.63;;
10586;SDS011;5341;47.606;7.576;2023-05-13T05:45:01;5.13;;;3.95;;
10586;SDS011;5341;47.606;7.576;2023-05-13T05:47:29;4.82;;;4.30;;
10586;SDS011;5341;47.606;7.576;2023-05-13T05:49:57;4.18;;;3.78;;
10586;SDS011;5341;47.606;7.576;2023-05-13T05:52:24;5.75;;;4.25;;
10586;SDS011;5341;47.606;7.576;2023-05-13T05:54:52;4.55;;;3.90;;
10586;SDS011;5341;47.606;7.576;2023-05-13T05:57:20;5.15;;;3.90;;
10586;SDS011;5341;47.606;7.576;2023-05-13T05:59:48;4.65;;;4.25;;
10586;SDS011;5341;47.606;7.576;2023-05-13T06:02:16;4.70;;;4.20;;
10586;SDS011;5341;47.606;7.576;2023-05-13T06:04:43;5.28;;;4.53;;
10586;SDS011;5341;47.606;7.576;2023-05-13T06:07:12;4.57;;;4.07;;
10586;SDS011;5341;47.606;7.576;2023-05-13T06:09:40;4.75;;;4.30;;
10586;SDS011;5341;47.606;7.576;2023-05-13T06:12:08;5.05;;;3.78;;
10586;SDS011;5341;47.606;7.576;2023-05-13T06:14:37;4.30;;;3.78;;
10586;SDS011;5341;47.606;7.576;2023-05-13T06:17:04;5.25;;;4.25;;
10586;SDS011;5341;47.606;7.576;2023-05-13T06:19:31;4.20;;;3.83;;
10586;SDS011;5341;47.606;7.576;2023-05-13T06:21:59;4.90;;;4.50;;
10586;SDS011;5341;47.606;7.576;2023-05-13T06:24:26;5.28;;;4.15;;
10586;SDS011;5341;47.606;7.576;2023-05-13T06:26:53;4.85;;;3.83;;
10586;SDS011;5341;47.606;7.576;2023-05-13T06:29:21;4.40;;;4.00;;
10586;SDS011;5341;47.606;7.576;2023-05-13T06:31:50;4.07;;;3.58;;
10586;SDS011;5341;47.606;7.576;2023-05-13T06:34:18;4.15;;;3.75;;
10586;SDS011;5341;47.606;7.576;2023-05-13T06:36:46;6.45;;;3.85;;
10586;SDS011;5341;47.606;7.576;2023-05-13T06:39:13;3.90;;;3.58;;
10586;SDS011;5341;47.606;7.576;2023-05-13T06:41:41;3.78;;;3.47;;
10586;SDS011;5341;47.606;7.576;2023-05-13T06:44:12;4.07;;;3.35;;
10586;SDS011;5341;47.606;7.576;2023-05-13T06:46:43;4.30;;;3.90;;
10586;SDS011;5341;47.606;7.576;2023-05-13T06:49:12;3.92;;;3.53;;
10586;SDS011;5341;47.606;7.576;2023-05-13T06:51:40;4.75;;;3.60;;
10586;SDS011;5341;47.606;7.576;2023-05-13T06:54:08;4.05;;;3.65;;
10586;SDS011;5341;47.606;7.576;2023-05-13T06:56:35;4.80;;;3.47;;
10586;SDS011;5341;47.606;7.576;2023-05-13T06:59:02;4.90;;;3.40;;
10586;SDS011;5341;47.606;7.576;2023-05-13T07:01:30;4.75;;;3.85;;
10586;SDS011;5341;47.606;7.576;2023-05-13T07:03:58;4.07;;;3.67;;
10586;SDS011;5341;47.606;7.576;2023-05-13T07:06:27;3.67;;;3.30;;
10586;SDS011;5341;47.606;7.576;2023-05-13T07:08:56;3.78;;;3.30;;
10586;SDS011;5341;47.606;7.576;2023-05-13T07:11:24;3.72;;;3.40;;
10586;SDS011;5341;47.606;7.576;2023-05-13T07:13:51;3.45;;;3.15;;
10586;SDS011;5341;47.606;7.576;2023-05-13T07:16:19;4.40;;;3.28;;
10586;SDS011;5341;47.606;7.576;2023-05-13T07:18:46;3.80;;;3.45;;
10586;SDS011;5341;47.606;7.576;2023-05-13T07:21:14;4.03;;;3.40;;
10586;SDS011;5341;47.606;7.576;2023-05-13T07:23:42;3.85;;;3.30;;
10586;SDS011;5341;47.606;7.576;2023-05-13T07:26:10;3.72;;;3.42;;
10586;SDS011;5341;47.606;7.576;2023-05-13T07:28:37;4.45;;;3.33;;
10586;SDS011;5341;47.606;7.576;2023-05-13T07:31:04;5.13;;;3.47;;
10586;SDS011;5341;47.606;7.576;2023-05-13T07:33:32;5.43;;;3.28;;
10586;SDS011;5341;47.606;7.576;2023-05-13T07:35:59;3.72;;;3.42;;
10586;SDS011;5341;47.606;7.576;2023-05-13T07:38:27;3.83;;;3.30;;
10586;SDS011;5341;47.606;7.576;2023-05-13T07:40:56;4.55;;;3.08;;
10586;SDS011;5341;47.606;7.576;2023-05-13T07:43:23;3.65;;;3.35;;
10586;SDS011;5341;47.606;7.576;2023-05-13T07:45:52;4.22;;;3.63;;
10586;SDS011;5341;47.606;7.576;2023-05-13T07:48:19;3.50;;;3.20;;
10586;SDS011;5341;47.606;7.576;2023-05-13T07:50:48;3.50;;;3.20;;
10586;SDS011;5341;47.606;7.576;2023-05-13T07:53:16;3.83;;;3.42;;
10586;SDS011;5341;47.606;7.576;2023-05-13T07:55:43;3.83;;;3.53;;
10586;SDS011;5341;47.606;7.576;2023-05-13T07:58:12;3.72;;;3.10;;
10586;SDS011;5341;47.606;7.576;2023-05-13T08:00:39;3.72;;;3.35;;
10586;SDS011;5341;47.606;7.576;2023-05-13T08:03:06;3.42;;;3.00;;
10586;SDS011;5341;47.606;7.576;2023-05-13T08:05:34;4.45;;;3.60;;
10586;SDS011;5341;47.606;7.576;2023-05-13T08:08:01;4.55;;;3.30;;
10586;SDS011;5341;47.606;7.576;2023-05-13T08:10:29;3.33;;;3.03;;
10586;SDS011;5341;47.606;7.576;2023-05-13T08:12:56;3.30;;;3.00;;
10586;SDS011;5341;47.606;7.576;2023-05-13T08:15:27;4.70;;;3.30;;
10586;SDS011;5341;47.606;7.576;2023-05-13T08:17:54;3.75;;;3.38;;
10586;SDS011;5341;47.606;7.576;2023-05-13T08:20:22;3.28;;;2.97;;
10586;SDS011;5341;47.606;7.576;2023-05-13T08:22:54;2.90;;;2.60;;
10586;SDS011;5341;47.606;7.576;2023-05-13T08:25:22;4.18;;;2.88;;
10586;SDS011;5341;47.606;7.576;2023-05-13T08:27:49;3.13;;;2.85;;
10586;SDS011;5341;47.606;7.576;2023-05-13T08:30:17;3.10;;;2.80;;
10586;SDS011;5341;47.606;7.576;2023-05-13T08:32:46;2.92;;;2.58;;
10586;SDS011;5341;47.606;7.576;2023-05-13T08:35:13;2.90;;;2.70;;
10586;SDS011;5341;47.606;7.576;2023-05-13T08:37:41;3.08;;;2.78;;
10586;SDS011;5341;47.606;7.576;2023-05-13T08:40:09;3.40;;;3.08;;
10586;SDS011;5341;47.606;7.576;2023-05-13T08:42:37;3.75;;;2.88;;
10586;SDS011;5341;47.606;7.576;2023-05-13T08:45:06;4.50;;;3.22;;
10586;SDS011;5341;47.606;7.576;2023-05-13T08:47:38;4.10;;;3.00;;
10586;SDS011;5341;47.606;7.576;2023-05-13T08:50:11;3.38;;;3.05;;
10586;SDS011;5341;47.606;7.576;2023-05-13T08:52:38;3.63;;;2.92;;
10586;SDS011;5341;47.606;7.576;2023-05-13T08:55:06;4.60;;;3.20;;
10586;SDS011;5341;47.606;7.576;2023-05-13T08:57:34;4.45;;;3.30;;
10586;SDS011;5341;47.606;7.576;2023-05-13T09:00:02;3.45;;;3.03;;
10586;SDS011;5341;47.606;7.576;2023-05-13T09:02:29;5.47;;;3.00;;
10586;SDS011;5341;47.606;7.576;2023-05-13T09:04:58;3.30;;;3.00;;
10586;SDS011;5341;47.606;7.576;2023-05-13T09:07:30;4.40;;;3.03;;
10586;SDS011;5341;47.606;7.576;2023-05-13T09:09:57;4.20;;;3.17;;
10586;SDS011;5341;47.606;7.576;2023-05-13T09:12:44;3.13;;;2.83;;
10586;SDS011;5341;47.606;7.576;2023-05-13T09:15:13;3.10;;;2.85;;
10586;SDS011;5341;47.606;7.576;2023-05-13T09:17:41;3.03;;;2.80;;
10586;SDS011;5341;47.606;7.576;2023-05-13T09:20:10;3.67;;;2.83;;
10586;SDS011;5341;47.606;7.576;2023-05-13T09:22:42;4.35;;;3.80;;
10586;SDS011;5341;47.606;7.576;2023-05-13T09:25:12;4.70;;;3.92;;
10586;SDS011;5341;47.606;7.576;2023-05-13T09:27:41;3.65;;;3.35;;
10586;SDS011;5341;47.606;7.576;2023-05-13T09:30:10;3.22;;;2.92;;
10586;SDS011;5341;47.606;7.576;2023-05-13T09:32:38;3.80;;;3.10;;
10586;SDS011;5341;47.606;7.576;2023-05-13T09:35:07;4.55;;;3.45;;
10586;SDS011;5341;47.606;7.576;2023-05-13T09:37:43;3.50;;;3.17;;
10586;SDS011;5341;47.606;7.576;2023-05-13T09:40:11;3.33;;;3.03;;
10586;SDS011;5341;47.606;7.576;2023-05-13T09:42:39;4.97;;;3.58;;
10586;SDS011;5341;47.606;7.576;2023-05-13T09:45:08;3.03;;;2.63;;
10586;SDS011;5341;47.606;7.576;2023-05-13T09:47:37;3.30;;;3.00;;
10586;SDS011;5341;47.606;7.576;2023-05-13T09:50:06;3.30;;;3.00;;
10586;SDS011;5341;47.606;7.576;2023-05-13T09:52:35;3.55;;;3.25;;
10586;SDS011;5341;47.606;7.576;2023-05-13T09:55:08;3.22;;;2.92;;
10586;SDS011;5341;47.606;7.576;2023-05-13T09:57:37;3.08;;;2.80;;
10586;SDS011;5341;47.606;7.576;2023-05-13T10:00:05;6.30;;;3.03;;
10586;SDS011;5341;47.606;7.576;2023-05-13T10:02:36;4.28;;;3.40;;
10586;SDS011;5341;47.606;7.576;2023-05-13T10:05:05;4.00;;;3.00;;
10586;SDS011;5341;47.606;7.576;2023-05-13T10:07:35;3.22;;;2.85;;
10586;SDS011;5341;47.606;7.576;2023-05-13T10:10:04;4.30;;;2.75;;
10586;SDS011;5341;47.606;7.576;2023-05-13T10:12:35;4.43;;;3.38;;
10586;SDS011;5341;47.606;7.576;2023-05-13T10:15:05;4.97;;;2.88;;
10586;SDS011;5341;47.606;7.576;2023-05-13T10:17:34;3.50;;;3.20;;
10586;SDS011;5341;47.606;7.576;2023-05-13T10:20:02;2.72;;;2.53;;
10586;SDS011;5341;47.606;7.576;2023-05-13T10:22:32;4.30;;;3.05;;
10586;SDS011;5341;47.606;7.576;2023-05-13T10:25:01;17.58;;;4.10;;
10586;SDS011;5341;47.606;7.576;2023-05-13T10:27:30;6.10;;;2.90;;
10586;SDS011;5341;47.606;7.576;2023-05-13T10:30:01;5.22;;;3.00;;
10586;SDS011;5341;47.606;7.576;2023-05-13T10:32:34;5.60;;;3.35;;
10586;SDS011;5341;47.606;7.576;2023-05-13T10:35:05;4.60;;;3.03;;
10586;SDS011;5341;47.606;7.576;2023-05-13T10:37:56;3.13;;;2.85;;
10586;SDS011;5341;47.606;7.576;2023-05-13T10:40:30;5.03;;;2.90;;
10586;SDS011;5341;47.606;7.576;2023-05-13T10:43:20;3.83;;;3.00;;
10586;SDS011;5341;47.606;7.576;2023-05-13T10:45:51;3.40;;;2.90;;
10586;SDS011;5341;47.606;7.576;2023-05-13T10:48:22;3.42;;;2.47;;
10586;SDS011;5341;47.606;7.576;2023-05-13T10:50:50;3.40;;;2.70;;
10586;SDS011;5341;47.606;7.576;2023-05-13T10:53:21;2.70;;;2.50;;
10586;SDS011;5341;47.606;7.576;2023-05-13T10:55:51;3.78;;;2.60;;
10586;SDS011;5341;47.606;7.576;2023-05-13T10:58:20;2.78;;;2.58;;
10586;SDS011;5341;47.606;7.576;2023-05-13T11:01:11;3.67;;;2.75;;
10586;SDS011;5341;47.606;7.576;2023-05-13T11:03:40;3.17;;;2.70;;
10586;SDS011;5341;47.606;7.576;2023-05-13T11:06:14;4.55;;;2.53;;
10586;SDS011;5341;47.606;7.576;2023-05-13T11:08:44;2.72;;;2.53;;
10586;SDS011;5341;47.606;7.576;2023-05-13T11:11:16;2.60;;;2.40;;
10586;SDS011;5341;47.606;7.576;2023-05-13T11:13:44;2.50;;;2.30;;
10586;SDS011;5341;47.606;7.576;2023-05-13T11:16:13;2.90;;;2.63;;
10586;SDS011;5341;47.606;7.576;2023-05-13T11:18:40;2.75;;;2.30;;
10586;SDS011;5341;47.606;7.576;2023-05-13T11:21:08;2.55;;;2.28;;
10586;SDS011;5341;47.606;7.576;2023-05-13T11:23:49;3.00;;;2.70;;
10586;SDS011;5341;47.606;7.576;2023-05-13T11:26:17;4.38;;;2.47;;
10586;SDS011;5341;47.606;7.576;2023-05-13T11:28:52;2.50;;;2.30;;
10586;SDS011;5341;47.606;7.576;2023-05-13T11:31:23;3.15;;;2.10;;
10586;SDS011;5341;47.606;7.576;2023-05-13T11:34:07;3.42;;;2.25;;
10586;SDS011;5341;47.606;7.576;2023-05-13T11:36:36;4.70;;;2.50;;
10586;SDS011;5341;47.606;7.576;2023-05-13T11:39:05;2.58;;;2.08;;
10586;SDS011;5341;47.606;7.576;2023-05-13T11:41:35;2.75;;;2.55;;
10586;SDS011;5341;47.606;7.576;2023-05-13T11:44:04;4.22;;;2.60;;
10586;SDS011;5341;47.606;7.576;2023-05-13T11:46:33;2.78;;;2.53;;
10586;SDS011;5341;47.606;7.576;2023-05-13T11:49:01;2.70;;;2.20;;
10586;SDS011;5341;47.606;7.576;2023-05-13T11:51:28;2.50;;;2.30;;
10586;SDS011;5341;47.606;7.576;2023-05-13T11:54:00;2.10;;;1.90;;
10586;SDS011;5341;47.606;7.576;2023-05-13T11:56:28;3.70;;;2.20;;
10586;SDS011;5341;47.606;7.576;2023-05-13T11:59:11;3.22;;;2.47;;
10586;SDS011;5341;47.606;7.576;2023-05-13T12:01:41;3.90;;;2.60;;
10586;SDS011;5341;47.606;7.576;2023-05-13T12:04:09;2.40;;;2.20;;
10586;SDS011;5341;47.606;7.576;2023-05-13T12:06:41;2.45;;;2.25;;
10586;SDS011;5341;47.606;7.576;2023-05-13T12:09:10;2.30;;;2.10;;
10586;SDS011;5341;47.606;7.576;2023-05-13T12:11:38;2.50;;;2.30;;
10586;SDS011;5341;47.606;7.576;2023-05-13T12:14:06;3.45;;;2.33;;
10586;SDS011;5341;47.606;7.576;2023-05-13T12:16:34;3.60;;;2.45;;
10586;SDS011;5341;47.606;7.576;2023-05-13T12:19:06;3.70;;;2.38;;
10586;SDS011;5341;47.606;7.576;2023-05-13T12:21:34;3.05;;;2.35;;
10586;SDS011;5341;47.606;7.576;2023-05-13T12:24:02;3.70;;;2.10;;
10586;SDS011;5341;47.606;7.576;2023-05-13T12:26:42;2.67;;;2.08;;
10586;SDS011;5341;47.606;7.576;2023-05-13T12:29:10;2.17;;;1.95;;
10586;SDS011;5341;47.606;7.576;2023-05-13T12:31:39;2.85;;;2.00;;
10586;SDS011;5341;47.606;7.576;2023-05-13T12:34:09;2.35;;;1.92;;
10586;SDS011;5341;47.606;7.576;2023-05-13T12:36:37;2.10;;;1.90;;
10586;SDS011;5341;47.606;7.576;2023-05-13T12:39:05;2.20;;;2.00;;
10586;SDS011;5341;47.606;7.576;2023-05-13T12:41:35;2.42;;;1.73;;
10586;SDS011;5341;47.606;7.576;2023-05-13T12:44:06;1.92;;;1.80;;
10586;SDS011;5341;47.606;7.576;2023-05-13T12:46:34;2.00;;;1.80;;
10586;SDS011;5341;47.606;7.576;2023-05-13T12:49:03;1.80;;;1.70;;
10586;SDS011;5341;47.606;7.576;2023-05-13T12:51:32;2.08;;;1.88;;
10586;SDS011;5341;47.606;7.576;2023-05-13T12:53:59;2.45;;;1.80;;
10586;SDS011;5341;47.606;7.576;2023-05-13T12:56:27;2.60;;;1.70;;
10586;SDS011;5341;47.606;7.576;2023-05-13T12:58:54;2.03;;;1.67;;
10586;SDS011;5341;47.606;7.576;2023-05-13T13:01:22;1.80;;;1.60;;
10586;SDS011;5341;47.606;7.576;2023-05-13T13:03:49;2.15;;;1.85;;
10586;SDS011;5341;47.606;7.576;2023-05-13T13:06:17;1.98;;;1.75;;
10586;SDS011;5341;47.606;7.576;2023-05-13T13:08:46;1.80;;;1.70;;
10586;SDS011;5341;47.606;7.576;2023-05-13T13:11:13;2.75;;;1.40;;
10586;SDS011;5341;47.606;7.576;2023-05-13T13:13:42;2.47;;;1.75;;
10586;SDS011;5341;47.606;7.576;2023-05-13T13:16:10;2.00;;;1.80;;
10586;SDS011;5341;47.606;7.576;2023-05-13T13:18:38;2.80;;;2.08;;
10586;SDS011;5341;47.606;7.576;2023-05-13T13:21:06;2.30;;;1.70;;
10586;SDS011;5341;47.606;7.576;2023-05-13T13:23:33;1.77;;;1.67;;
10586;SDS011;5341;47.606;7.576;2023-05-13T13:26:02;2.13;;;1.80;;
10586;SDS011;5341;47.606;7.576;2023-05-13T13:28:29;2.17;;;1.83;;
10586;SDS011;5341;47.606;7.576;2023-05-13T13:30:57;2.05;;;1.95;;
10586;SDS011;5341;47.606;7.576;2023-05-13T13:33:24;1.80;;;1.70;;
10586;SDS011;5341;47.606;7.576;2023-05-13T13:35:51;2.08;;;1.77;;
10586;SDS011;5341;47.606;7.576;2023-05-13T13:38:18;2.17;;;1.90;;
10586;SDS011;5341;47.606;7.576;2023-05-13T13:40:46;2.40;;;1.70;;
10586;SDS011;5341;47.606;7.576;2023-05-13T13:43:14;2.13;;;1.88;;
10586;SDS011;5341;47.606;7.576;2023-05-13T13:45:42;2.30;;;2.10;;
10586;SDS011;5341;47.606;7.576;2023-05-13T13:48:10;3.40;;;1.88;;
10586;SDS011;5341;47.606;7.576;2023-05-13T13:50:37;1.90;;;1.70;;
10586;SDS011;5341;47.606;7.576;2023-05-13T13:53:04;1.60;;;1.50;;
10586;SDS011;5341;47.606;7.576;2023-05-13T13:55:32;1.85;;;1.48;;
10586;SDS011;5341;47.606;7.576;2023-05-13T13:57:59;1.80;;;1.70;;
10586;SDS011;5341;47.606;7.576;2023-05-13T14:00:28;3.08;;;1.75;;
10586;SDS011;5341;47.606;7.576;2023-05-13T14:02:56;3.10;;;1.90;;
10586;SDS011;5341;47.606;7.576;2023-05-13T14:05:23;1.70;;;1.60;;
10586;SDS011;5341;47.606;7.576;2023-05-13T14:07:50;1.98;;;1.70;;
10586;SDS011;5341;47.606;7.576;2023-05-13T14:10:20;2.38;;;1.70;;
10586;SDS011;5341;47.606;7.576;2023-05-13T14:12:47;2.88;;;1.92;;
10586;SDS011;5341;47.606;7.576;2023-05-13T14:15:15;2.00;;;1.60;;
10586;SDS011;5341;47.606;7.576;2023-05-13T14:17:45;2.03;;;1.83;;
10586;SDS011;5341;47.606;7.576;2023-05-13T14:20:13;2.67;;;2.47;;
10586;SDS011;5341;47.606;7.576;2023-05-13T14:22:40;5.40;;;4.93;;
10586;SDS011;5341;47.606;7.576;2023-05-13T14:25:08;5.53;;;4.90;;
10586;SDS011;5341;47.606;7.576;2023-05-13T14:27:35;3.65;;;3.35;;
10586;SDS011;5341;47.606;7.576;2023-05-13T14:30:03;3.90;;;3.53;;
10586;SDS011;5341;47.606;7.576;2023-05-13T14:32:32;3.95;;;3.50;;
10586;SDS011;5341;47.606;7.576;2023-05-13T14:35:01;4.20;;;2.60;;
10586;SDS011;5341;47.606;7.576;2023-05-13T14:37:29;3.10;;;2.83;;
10586;SDS011;5341;47.606;7.576;2023-05-13T14:39:56;3.15;;;2.78;;
10586;SDS011;5341;47.606;7.576;2023-05-13T14:42:24;2.95;;;2.13;;
10586;SDS011;5341;47.606;7.576;2023-05-13T14:44:51;1.88;;;1.77;;
10586;SDS011;5341;47.606;7.576;2023-05-13T14:47:18;2.45;;;1.90;;
10586;SDS011;5341;47.606;7.576;2023-05-13T14:49:46;2.88;;;2.00;;
10586;SDS011;5341;47.606;7.576;2023-05-13T14:52:14;2.00;;;1.90;;
10586;SDS011;5341;47.606;7.576;2023-05-13T14:54:42;2.53;;;2.03;;
10586;SDS011;5341;47.606;7.576;2023-05-13T14:57:09;1.70;;;1.60;;
10586;SDS011;5341;47.606;7.576;2023-05-13T14:59:37;1.60;;;1.50;;
10586;SDS011;5341;47.606;7.576;2023-05-13T15:02:04;1.42;;;1.33;;
10586;SDS011;5341;47.606;7.576;2023-05-13T15:04:32;1.52;;;1.42;;
10586;SDS011;5341;47.606;7.576;2023-05-13T15:07:00;2.83;;;1.60;;
10586;SDS011;5341;47.606;7.576;2023-05-13T15:09:30;2.97;;;1.63;;